createdAt,value
2019-02-23T00:02:06.238Z,9.75
2019-02-23T00:04:34.726Z,10.50
2019-02-23T00:07:03.137Z,14.25
2019-02-23T00:09:31.541Z,16.02
2019-02-23T00:11:59.936Z,13.10
2019-02-23T00:14:29.320Z,11.15
2019-02-23T00:16:57.717Z,9.80
2019-02-23T00:19:26.117Z,11.57
2019-02-23T00:21:54.528Z,8.95
2019-02-23T00:24:22.928Z,8.83
2019-02-23T00:26:51.357Z,10.45
2019-02-23T00:29:19.752Z,8.65
2019-02-23T00:31:48.208Z,9.65
2019-02-23T00:34:16.678Z,8.10
2019-02-23T00:36:45.072Z,10.00
2019-02-23T00:39:13.527Z,8.68
2019-02-23T00:41:41.922Z,7.62
2019-02-23T00:44:10.316Z,5.97
2019-02-23T00:46:38.720Z,6.35
2019-02-23T00:49:07.116Z,7.47
2019-02-23T00:51:35.544Z,5.40
2019-02-23T00:54:03.940Z,6.47
2019-02-23T00:56:32.338Z,8.25
2019-02-23T00:59:00.735Z,5.87
2019-02-23T01:01:29.136Z,8.65
2019-02-23T01:03:57.646Z,4.85
2019-02-23T01:06:26.064Z,2.92
2019-02-23T01:08:54.464Z,11.60
2019-02-23T01:11:22.873Z,5.33
2019-02-23T01:13:51.353Z,5.75
2019-02-23T01:16:20.699Z,5.08
2019-02-23T01:18:49.092Z,5.40
2019-02-23T01:21:17.488Z,5.78
2019-02-23T01:23:45.892Z,5.10
2019-02-23T01:26:14.360Z,3.35
2019-02-23T01:28:42.788Z,2.85
2019-02-23T01:31:11.198Z,8.38
2019-02-23T01:33:39.584Z,6.17
2019-02-23T01:36:07.981Z,3.87
2019-02-23T01:38:36.387Z,3.83
2019-02-23T01:41:04.852Z,4.08
2019-02-23T01:43:33.257Z,4.08
2019-02-23T01:46:01.649Z,7.10
2019-02-23T01:48:30.044Z,4.87
2019-02-23T01:50:58.440Z,7.35
2019-02-23T01:53:26.864Z,4.20
2019-02-23T01:55:55.268Z,4.25
2019-02-23T01:58:23.668Z,3.52
2019-02-23T02:00:52.073Z,7.00
2019-02-23T02:03:20.748Z,7.35
2019-02-23T02:05:49.244Z,8.43
2019-02-23T02:08:17.643Z,6.10
2019-02-23T02:10:46.100Z,8.90
2019-02-23T02:13:14.503Z,8.38
2019-02-23T02:15:42.969Z,7.03
2019-02-23T02:18:11.488Z,5.35
2019-02-23T02:20:39.904Z,5.20
2019-02-23T02:23:08.300Z,2.90
2019-02-23T02:25:36.704Z,5.90
2019-02-23T02:28:05.100Z,5.30
2019-02-23T02:30:33.531Z,9.13
2019-02-23T02:33:01.940Z,7.80
2019-02-23T02:35:30.340Z,6.95
2019-02-23T02:37:58.739Z,6.42
2019-02-23T02:40:27.133Z,6.65
2019-02-23T02:42:55.604Z,4.90
2019-02-23T02:45:24.001Z,3.77
2019-02-23T02:47:52.405Z,10.05
2019-02-23T02:50:24.225Z,5.67
2019-02-23T02:52:50.853Z,5.75
2019-02-23T02:55:19.291Z,6.40
2019-02-23T02:57:47.694Z,7.50
2019-02-23T03:00:16.158Z,5.70
2019-02-23T03:02:44.664Z,1.90
2019-02-23T03:05:13.036Z,3.08
2019-02-23T03:07:41.469Z,3.42
2019-02-23T03:10:09.866Z,2.70
2019-02-23T03:12:38.265Z,3.05
2019-02-23T03:15:07.481Z,3.80
2019-02-23T03:17:36.777Z,12.90
2019-02-23T03:20:07.140Z,1.82
2019-02-23T03:22:35.536Z,3.67
2019-02-23T03:25:04.411Z,2.27
2019-02-23T03:27:32.810Z,2.47
2019-02-23T03:30:01.205Z,3.22
2019-02-23T03:32:29.637Z,2.55
2019-02-23T03:34:58.036Z,3.92
2019-02-23T03:37:26.439Z,5.85
2019-02-23T03:39:54.836Z,3.65
2019-02-23T03:42:23.236Z,3.70
2019-02-23T03:44:51.669Z,3.30
2019-02-23T03:47:20.063Z,4.08
2019-02-23T03:49:48.457Z,2.70
2019-02-23T03:52:16.860Z,5.12
2019-02-23T03:54:45.257Z,3.12
2019-02-23T03:57:13.682Z,2.60
2019-02-23T03:59:42.085Z,5.10
2019-02-23T04:02:10.489Z,3.45
2019-02-23T04:04:38.886Z,4.58
2019-02-23T04:07:07.281Z,6.22
2019-02-23T04:09:35.725Z,3.22
2019-02-23T04:12:04.116Z,5.78
2019-02-23T04:14:32.511Z,5.12
2019-02-23T04:17:00.913Z,7.00
2019-02-23T04:19:30.273Z,5.33
2019-02-23T04:21:58.692Z,8.13
2019-02-23T04:24:27.099Z,5.62
2019-02-23T04:26:55.504Z,5.28
2019-02-23T04:29:23.896Z,7.92
2019-02-23T04:31:52.292Z,3.62
2019-02-23T04:34:20.740Z,4.30
2019-02-23T04:36:49.150Z,9.00
2019-02-23T04:39:17.548Z,5.85
2019-02-23T04:41:45.952Z,5.62
2019-02-23T04:44:14.433Z,6.35
2019-02-23T04:46:42.877Z,4.53
2019-02-23T04:49:11.268Z,3.55
2019-02-23T04:51:39.669Z,4.50
2019-02-23T04:54:08.065Z,4.47
2019-02-23T04:56:36.461Z,4.00
2019-02-23T04:59:04.888Z,3.45
2019-02-23T05:01:33.286Z,5.80
2019-02-23T05:04:01.680Z,4.78
2019-02-23T05:06:30.084Z,3.67
2019-02-23T05:08:58.482Z,6.53
2019-02-23T05:11:26.911Z,4.50
2019-02-23T05:13:55.301Z,4.78
2019-02-23T05:16:23.705Z,2.65
2019-02-23T05:18:52.109Z,10.65
2019-02-23T05:21:26.173Z,5.15
2019-02-23T05:23:50.601Z,3.03
2019-02-23T05:26:18.984Z,2.83
2019-02-23T05:28:47.381Z,7.17
2019-02-23T05:31:15.786Z,7.40
2019-02-23T05:33:44.193Z,8.50
2019-02-23T05:36:12.612Z,5.37
2019-02-23T05:38:41.004Z,6.87
2019-02-23T05:41:09.408Z,8.28
2019-02-23T05:43:37.810Z,10.40
2019-02-23T05:46:06.213Z,5.25
2019-02-23T05:48:35.013Z,7.35
2019-02-23T05:51:03.414Z,4.70
2019-02-23T05:53:31.811Z,7.28
2019-02-23T05:56:00.237Z,5.12
2019-02-23T05:58:28.617Z,6.80
2019-02-23T06:00:57.041Z,6.70
2019-02-23T06:03:25.436Z,4.30
2019-02-23T06:05:53.839Z,9.33
2019-02-23T06:08:22.595Z,3.90
2019-02-23T06:10:50.989Z,5.15
2019-02-23T06:13:19.433Z,9.25
2019-02-23T06:15:47.828Z,6.15
2019-02-23T06:18:16.252Z,4.10
2019-02-23T06:20:45.558Z,7.12
2019-02-23T06:23:13.953Z,7.30
2019-02-23T06:25:42.408Z,9.08
2019-02-23T06:28:10.808Z,5.85
2019-02-23T06:30:39.216Z,5.70
2019-02-23T06:33:07.613Z,6.17
2019-02-23T06:35:36.008Z,7.22
2019-02-23T06:38:04.477Z,4.53
2019-02-23T06:40:32.869Z,6.20
2019-02-23T06:43:01.275Z,5.00
2019-02-23T06:45:29.690Z,10.60
2019-02-23T06:47:58.087Z,9.80
2019-02-23T06:50:26.531Z,12.60
2019-02-23T06:52:55.025Z,7.62
2019-02-23T06:55:23.429Z,6.05
2019-02-23T06:57:51.834Z,14.58
2019-02-23T07:00:20.306Z,14.15
2019-02-23T07:02:48.725Z,9.60
2019-02-23T07:05:17.140Z,7.17
2019-02-23T07:07:45.541Z,11.12
2019-02-23T07:10:14.483Z,9.73
2019-02-23T07:12:42.880Z,7.67
2019-02-23T07:15:11.331Z,10.48
2019-02-23T07:17:39.732Z,12.68
2019-02-23T07:20:09.868Z,12.15
2019-02-23T07:22:38.272Z,15.72
2019-02-23T07:25:08.206Z,12.35
2019-02-23T07:27:36.630Z,11.15
2019-02-23T07:30:15.964Z,9.73
2019-02-23T07:32:44.436Z,11.73
2019-02-23T07:35:12.828Z,7.90
2019-02-23T07:37:41.233Z,10.38
2019-02-23T07:40:16.696Z,8.40
2019-02-23T07:42:45.088Z,7.00
2019-02-23T07:45:13.526Z,7.42
2019-02-23T07:47:41.935Z,8.63
2019-02-23T07:50:15.331Z,11.70
2019-02-23T07:52:43.786Z,9.68
2019-02-23T07:55:12.278Z,9.85
2019-02-23T07:57:40.837Z,9.55
2019-02-23T08:00:12.207Z,9.90
2019-02-23T08:02:40.609Z,7.05
2019-02-23T08:05:10.075Z,10.53
2019-02-23T08:07:39.912Z,11.68
2019-02-23T08:10:10.740Z,8.05
2019-02-23T08:12:39.145Z,10.88
2019-02-23T08:15:09.575Z,11.00
2019-02-23T08:17:37.985Z,6.55
2019-02-23T08:20:08.789Z,11.08
2019-02-23T08:22:37.702Z,8.93
2019-02-23T08:25:08.988Z,10.08
2019-02-23T08:27:37.384Z,5.85
2019-02-23T08:30:09.063Z,11.43
2019-02-23T08:32:37.460Z,9.63
2019-02-23T08:35:07.325Z,8.48
2019-02-23T08:37:35.866Z,13.15
2019-02-23T08:40:07.266Z,9.85
2019-02-23T08:42:35.673Z,10.98
2019-02-23T08:45:04.637Z,9.38
2019-02-23T08:47:33.076Z,11.18
2019-02-23T08:50:01.486Z,10.50
2019-02-23T08:52:29.916Z,7.80
2019-02-23T08:54:58.316Z,12.25
2019-02-23T08:57:26.712Z,6.03
2019-02-23T08:59:55.144Z,14.50
2019-02-23T09:02:23.546Z,9.43
2019-02-23T09:04:51.940Z,8.75
2019-02-23T09:07:20.445Z,10.03
2019-02-23T09:09:48.841Z,8.50
2019-02-23T09:12:17.332Z,9.28
2019-02-23T09:14:45.737Z,4.65
2019-02-23T09:17:14.133Z,6.90
2019-02-23T09:19:42.621Z,7.20
2019-02-23T09:22:11.081Z,8.95
2019-02-23T09:24:39.512Z,7.75
2019-02-23T09:27:07.907Z,7.80
2019-02-23T09:29:36.300Z,8.58
2019-02-23T09:32:04.714Z,7.50
2019-02-23T09:34:33.125Z,12.43
2019-02-23T09:37:01.550Z,5.47
2019-02-23T09:39:29.951Z,10.25
2019-02-23T09:42:07.193Z,12.58
2019-02-23T09:44:28.433Z,5.70
2019-02-23T09:46:56.897Z,12.93
2019-02-23T09:49:25.331Z,7.50
2019-02-23T09:51:53.729Z,8.30
2019-02-23T09:54:22.192Z,8.18
2019-02-23T09:56:50.593Z,9.58
2019-02-23T09:59:18.991Z,9.83
2019-02-23T10:01:47.420Z,8.48
2019-02-23T10:04:15.840Z,9.73
2019-02-23T10:06:44.236Z,5.45
2019-02-23T10:09:12.641Z,7.90
2019-02-23T10:11:41.032Z,7.28
2019-02-23T10:14:09.568Z,6.15
2019-02-23T10:16:37.965Z,8.50
2019-02-23T10:19:06.449Z,5.65
2019-02-23T10:21:34.854Z,5.70
2019-02-23T10:24:03.330Z,9.28
2019-02-23T10:26:31.764Z,8.03
2019-02-23T10:29:00.166Z,9.18
2019-02-23T10:31:28.562Z,9.73
2019-02-23T10:33:56.969Z,5.47
2019-02-23T10:36:25.365Z,7.50
2019-02-23T10:38:53.788Z,6.83
2019-02-23T10:41:22.185Z,8.65
2019-02-23T10:43:50.576Z,10.20
2019-02-23T10:46:18.988Z,8.25
2019-02-23T10:48:47.408Z,9.03
2019-02-23T10:51:15.848Z,8.75
2019-02-23T10:53:44.244Z,6.45
2019-02-23T10:56:12.721Z,7.58
2019-02-23T10:58:41.127Z,7.87
2019-02-23T11:01:09.592Z,5.95
2019-02-23T11:03:38.027Z,7.85
2019-02-23T11:06:06.882Z,7.25
2019-02-23T11:08:35.377Z,10.43
2019-02-23T11:11:04.053Z,5.87
2019-02-23T11:13:32.484Z,5.37
2019-02-23T11:16:01.020Z,6.72
2019-02-23T11:18:29.508Z,9.45
2019-02-23T11:20:57.984Z,8.63
2019-02-23T11:23:26.412Z,6.87
2019-02-23T11:25:54.881Z,6.10
2019-02-23T11:28:23.316Z,5.03
2019-02-23T11:30:51.715Z,5.87
2019-02-23T11:33:20.114Z,5.55
2019-02-23T11:35:48.601Z,4.42
2019-02-23T11:38:16.992Z,9.78
2019-02-23T11:40:45.421Z,6.33
2019-02-23T11:43:13.833Z,8.43
2019-02-23T11:45:42.226Z,7.08
2019-02-23T11:48:10.708Z,8.08
2019-02-23T11:50:39.109Z,5.80
2019-02-23T11:53:07.629Z,8.18
2019-02-23T11:55:36.027Z,6.22
2019-02-23T11:58:04.429Z,7.45
2019-02-23T12:00:32.828Z,7.20
2019-02-23T12:03:01.232Z,6.85
2019-02-23T12:05:29.622Z,8.50
2019-02-23T12:07:58.085Z,12.45
2019-02-23T12:10:26.518Z,11.93
2019-02-23T12:12:54.921Z,8.60
2019-02-23T12:15:23.420Z,6.90
2019-02-23T12:17:51.821Z,8.68
2019-02-23T12:20:20.265Z,8.03
2019-02-23T12:22:48.612Z,11.93
2019-02-23T12:25:17.010Z,8.78
2019-02-23T12:27:45.408Z,11.00
2019-02-23T12:30:13.796Z,13.03
2019-02-23T12:32:43.096Z,5.25
2019-02-23T12:35:12.056Z,10.25
2019-02-23T12:37:40.537Z,13.43
2019-02-23T12:40:10.069Z,8.73
2019-02-23T12:42:38.492Z,16.48
2019-02-23T12:45:09.732Z,20.05
2019-02-23T12:47:38.188Z,9.70
2019-02-23T12:50:10.104Z,8.00
2019-02-23T12:52:38.505Z,11.53
2019-02-23T12:55:09.050Z,8.03
2019-02-23T12:57:37.443Z,8.13
2019-02-23T13:00:17.314Z,8.18
2019-02-23T13:02:45.719Z,7.90
2019-02-23T13:05:14.139Z,7.15
2019-02-23T13:07:42.532Z,10.63
2019-02-23T13:10:12.164Z,9.40
2019-02-23T13:12:59.004Z,7.72
2019-02-23T13:15:30.738Z,7.03
2019-02-23T13:18:13.968Z,13.85
2019-02-23T13:20:54.580Z,7.95
2019-02-23T13:23:35.124Z,7.15
2019-02-23T13:26:25.044Z,10.60
2019-02-23T13:29:14.904Z,11.00
2019-02-23T13:31:49.589Z,10.88
2019-02-23T13:34:37.407Z,12.15
2019-02-23T13:37:28.809Z,11.00
2019-02-23T13:40:18.766Z,9.25
2019-02-23T13:43:19.275Z,9.45
2019-02-23T13:46:03.064Z,6.50
2019-02-23T13:48:37.346Z,9.63
2019-02-23T13:51:15.033Z,8.75
2019-02-23T13:53:58.744Z,10.20
2019-02-23T13:56:45.518Z,12.28
2019-02-23T13:59:35.341Z,9.33
2019-02-23T14:02:22.085Z,9.33
2019-02-23T14:05:16.515Z,11.43
2019-02-23T14:08:10.321Z,12.68
2019-02-23T14:11:06.234Z,13.13
2019-02-23T14:14:00.736Z,11.60
2019-02-23T14:16:32.388Z,10.72
2019-02-23T14:19:16.422Z,12.05
2019-02-23T14:21:57.145Z,10.95
2019-02-23T14:24:28.840Z,10.48
2019-02-23T14:27:09.372Z,11.53
2019-02-23T14:29:56.092Z,13.90
2019-02-23T14:32:33.369Z,12.13
2019-02-23T14:35:05.986Z,10.63
2019-02-23T14:37:49.354Z,12.07
2019-02-23T14:40:32.743Z,10.05
2019-02-23T14:43:11.994Z,13.32
2019-02-23T14:45:52.284Z,12.88
2019-02-23T14:48:35.680Z,11.85
2019-02-23T14:51:25.784Z,14.38
2019-02-23T14:54:05.804Z,12.33
2019-02-23T14:56:37.500Z,13.18
2019-02-23T14:59:28.189Z,17.90
2019-02-23T15:02:02.785Z,11.08
2019-02-23T15:04:34.446Z,13.80
2019-02-23T15:07:39.478Z,11.83
2019-02-23T15:10:11.230Z,11.12
2019-02-23T15:13:07.292Z,12.05
2019-02-23T15:15:55.648Z,11.73
2019-02-23T15:18:36.476Z,10.28
2019-02-23T15:21:19.946Z,12.73
2019-02-23T15:23:57.473Z,8.35
2019-02-23T15:26:44.164Z,10.13
2019-02-23T15:29:18.436Z,11.75
2019-02-23T15:32:08.300Z,12.47
2019-02-23T15:34:42.969Z,16.85
2019-02-23T15:37:17.729Z,10.38
2019-02-23T15:39:58.614Z,10.55
2019-02-23T15:42:49.728Z,8.63
2019-02-23T15:45:39.660Z,10.85
2019-02-23T15:48:27.703Z,7.47
2019-02-23T15:50:56.141Z,9.03
2019-02-23T15:53:24.557Z,6.28
2019-02-23T15:55:53.075Z,8.65
2019-02-23T15:58:21.488Z,13.83
2019-02-23T16:00:50.278Z,8.25
2019-02-23T16:03:18.778Z,8.20
2019-02-23T16:05:47.185Z,10.48
2019-02-23T16:08:15.578Z,7.83
2019-02-23T16:10:44.088Z,10.20
2019-02-23T16:13:12.590Z,6.87
2019-02-23T16:15:40.965Z,8.53
2019-02-23T16:18:09.360Z,7.90
2019-02-23T16:20:37.757Z,7.12
2019-02-23T16:23:06.300Z,6.72
2019-02-23T16:25:38.308Z,8.05
2019-02-23T16:28:04.795Z,4.83
2019-02-23T16:30:33.193Z,5.17
2019-02-23T16:33:01.589Z,6.03
2019-02-23T16:35:30.122Z,10.55
2019-02-23T16:37:59.455Z,7.70
2019-02-23T16:40:28.380Z,5.90
2019-02-23T16:42:56.840Z,8.80
2019-02-23T16:45:25.242Z,6.17
2019-02-23T16:47:53.665Z,11.10
2019-02-23T16:50:22.069Z,7.00
2019-02-23T16:52:50.467Z,6.45
2019-02-23T16:55:18.867Z,11.95
2019-02-23T16:57:47.260Z,8.63
2019-02-23T17:00:15.701Z,10.13
2019-02-23T17:02:44.096Z,6.80
2019-02-23T17:05:12.493Z,8.30
2019-02-23T17:07:40.893Z,13.10
2019-02-23T17:10:09.305Z,9.78
2019-02-23T17:12:37.744Z,6.70
2019-02-23T17:15:10.221Z,11.95
2019-02-23T17:17:37.119Z,12.80
2019-02-23T17:20:06.164Z,10.40
2019-02-23T17:22:34.625Z,8.60
2019-02-23T17:25:03.217Z,8.85
2019-02-23T17:27:36.239Z,8.23
2019-02-23T17:30:01.673Z,8.50
2019-02-23T17:32:30.069Z,6.08
2019-02-23T17:34:58.465Z,9.70
2019-02-23T17:37:26.888Z,8.53
2019-02-23T17:39:56.209Z,8.30
2019-02-23T17:42:28.101Z,6.25
2019-02-23T17:44:54.648Z,6.22
2019-02-23T17:47:23.049Z,10.45
2019-02-23T17:49:51.586Z,10.75
2019-02-23T17:52:20.055Z,13.80
2019-02-23T17:54:48.444Z,9.83
2019-02-23T17:57:16.904Z,11.57
2019-02-23T17:59:45.297Z,9.08
2019-02-23T18:02:13.787Z,8.68
2019-02-23T18:04:42.188Z,9.85
2019-02-23T18:07:10.589Z,14.53
2019-02-23T18:09:38.997Z,7.40
2019-02-23T18:12:07.385Z,6.33
2019-02-23T18:14:35.808Z,7.92
2019-02-23T18:17:04.228Z,5.12
2019-02-23T18:19:32.622Z,6.50
2019-02-23T18:22:01.016Z,10.40
2019-02-23T18:24:29.415Z,7.87
2019-02-23T18:26:57.835Z,9.45
2019-02-23T18:29:26.238Z,7.05
2019-02-23T18:31:54.629Z,5.40
2019-02-23T18:34:23.037Z,6.17
2019-02-23T18:36:51.441Z,4.95
2019-02-23T18:39:19.932Z,4.85
2019-02-23T18:41:49.230Z,5.60
2019-02-23T18:44:17.640Z,9.10
2019-02-23T18:46:46.033Z,7.35
2019-02-23T18:49:14.438Z,7.05
2019-02-23T18:51:42.880Z,4.70
2019-02-23T18:54:11.278Z,6.55
2019-02-23T18:56:39.676Z,8.30
2019-02-23T18:59:08.076Z,7.15
2019-02-23T19:01:36.472Z,7.95
2019-02-23T19:04:04.936Z,6.78
2019-02-23T19:06:33.354Z,12.82
2019-02-23T19:09:01.732Z,7.78
2019-02-23T19:11:30.132Z,8.90
2019-02-23T19:13:58.520Z,9.50
2019-02-23T19:16:26.942Z,8.48
2019-02-23T19:18:55.335Z,7.37
2019-02-23T19:21:23.772Z,7.72
2019-02-23T19:23:52.197Z,11.78
2019-02-23T19:26:20.576Z,5.70
2019-02-23T19:28:49.002Z,8.50
2019-02-23T19:31:17.402Z,9.03
2019-02-23T19:33:45.807Z,8.58
2019-02-23T19:36:15.853Z,9.23
2019-02-23T19:38:44.253Z,9.60
2019-02-23T19:41:12.692Z,10.38
2019-02-23T19:43:41.989Z,9.73
2019-02-23T19:46:10.377Z,8.73
2019-02-23T19:48:38.778Z,8.58
2019-02-23T19:51:08.916Z,8.23
2019-02-23T19:53:38.091Z,11.75
2019-02-23T19:56:06.473Z,7.10
2019-02-23T19:58:34.930Z,7.95
2019-02-23T20:01:03.328Z,5.78
2019-02-23T20:03:31.733Z,10.68
2019-02-23T20:06:00.220Z,8.83
2019-02-23T20:08:28.614Z,10.10
2019-02-23T20:10:57.005Z,7.83
2019-02-23T20:13:25.438Z,8.60
2019-02-23T20:15:53.847Z,10.08
2019-02-23T20:18:22.264Z,8.40
2019-02-23T20:20:50.665Z,6.60
2019-02-23T20:23:19.051Z,8.20
2019-02-23T20:25:47.478Z,9.75
2019-02-23T20:28:15.875Z,7.55
2019-02-23T20:30:44.301Z,15.10
2019-02-23T20:33:12.697Z,10.45
2019-02-23T20:35:41.106Z,10.20
2019-02-23T20:38:09.509Z,13.50
2019-02-23T20:40:37.901Z,9.93
2019-02-23T20:43:06.340Z,11.93
2019-02-23T20:45:35.593Z,13.50
2019-02-23T20:48:04.068Z,10.30
2019-02-23T20:50:32.545Z,14.13
2019-02-23T20:53:01.019Z,10.63
2019-02-23T20:55:29.445Z,12.75
2019-02-23T20:57:57.840Z,11.43
2019-02-23T21:00:26.791Z,12.95
2019-02-23T21:02:55.236Z,9.65
2019-02-23T21:05:23.635Z,9.95
2019-02-23T21:07:52.056Z,15.08
2019-02-23T21:10:20.456Z,13.72
2019-02-23T21:12:48.957Z,10.98
2019-02-23T21:15:17.371Z,11.12
2019-02-23T21:17:45.761Z,9.53
2019-02-23T21:20:14.184Z,9.38
2019-02-23T21:22:42.589Z,10.15
2019-02-23T21:25:10.987Z,11.80
2019-02-23T21:27:39.379Z,8.75
2019-02-23T21:30:09.627Z,9.25
2019-02-23T21:32:38.033Z,10.63
2019-02-23T21:35:07.907Z,11.97
2019-02-23T21:37:36.332Z,15.68
2019-02-23T21:40:07.631Z,10.40
2019-02-23T21:42:36.034Z,11.20
2019-02-23T21:45:06.264Z,12.18
2019-02-23T21:47:34.672Z,11.37
2019-02-23T21:50:03.769Z,15.50
2019-02-23T21:52:32.165Z,14.45
2019-02-23T21:55:00.626Z,13.18
2019-02-23T21:57:29.024Z,10.95
2019-02-23T21:59:57.434Z,10.23
2019-02-23T22:02:26.062Z,11.73
2019-02-23T22:04:54.455Z,16.70
2019-02-23T22:07:22.856Z,10.58
2019-02-23T22:09:51.332Z,10.55
2019-02-23T22:12:19.740Z,12.07
2019-02-23T22:14:48.186Z,13.55
2019-02-23T22:17:16.574Z,13.48
2019-02-23T22:19:45.085Z,11.12
2019-02-23T22:22:13.479Z,12.98
2019-02-23T22:24:41.869Z,10.82
2019-02-23T22:27:10.291Z,13.65
2019-02-23T22:29:38.693Z,14.43
2019-02-23T22:32:07.092Z,19.20
2019-02-23T22:34:35.539Z,18.23
2019-02-23T22:37:03.888Z,16.12
2019-02-23T22:39:32.312Z,19.45
2019-02-23T22:42:00.718Z,20.25
2019-02-23T22:44:29.115Z,13.48
2019-02-23T22:46:57.516Z,13.78
2019-02-23T22:49:25.916Z,13.45
2019-02-23T22:51:54.336Z,13.75
2019-02-23T22:54:22.733Z,17.62
2019-02-23T22:56:51.140Z,14.87
2019-02-23T22:59:19.545Z,19.30
2019-02-23T23:01:48.109Z,19.02
2019-02-23T23:04:16.533Z,15.70
2019-02-23T23:06:45.016Z,19.67
2019-02-23T23:09:15.050Z,18.23
2019-02-23T23:11:43.452Z,17.02
2019-02-23T23:14:11.850Z,19.25
2019-02-23T23:16:40.279Z,16.25
2019-02-23T23:19:08.748Z,16.60
2019-02-23T23:21:37.153Z,16.73
2019-02-23T23:24:05.560Z,15.13
2019-02-23T23:26:33.952Z,16.15
2019-02-23T23:29:02.375Z,15.35
2019-02-23T23:31:30.779Z,15.88
2019-02-23T23:33:59.176Z,13.78
2019-02-23T23:36:27.597Z,15.48
2019-02-23T23:38:55.994Z,13.60
2019-02-23T23:41:24.424Z,17.12
2019-02-23T23:43:52.833Z,13.85
2019-02-23T23:46:21.228Z,14.23
2019-02-23T23:48:49.631Z,13.68
2019-02-23T23:51:18.024Z,13.88
2019-02-23T23:53:46.487Z,16.73
2019-02-23T23:56:14.882Z,16.60
2019-02-23T23:58:43.280Z,17.92
